sensor_id;sensor_type;location;lat;lon;timestamp;P1;durP1;ratioP1;P2;durP2;ratioP2
35074;SDS011;21260;34.984;32.490;2023-08-17T00:00:52;3.38;;;2.20;;
35074;SDS011;21260;34.984;32.490;2023-08-17T00:03:19;4.20;;;2.17;;
35074;SDS011;21260;34.984;32.490;2023-08-17T00:05:46;6.93;;;2.00;;
35074;SDS011;21260;34.984;32.490;2023-08-17T00:08:12;3.40;;;1.92;;
35074;SDS011;21260;34.984;32.490;2023-08-17T00:10:38;3.38;;;2.00;;
35074;SDS011;21260;34.984;32.490;2023-08-17T00:13:04;3.45;;;2.00;;
35074;SDS011;21260;34.984;32.490;2023-08-17T00:15:31;2.30;;;1.80;;
35074;SDS011;21260;34.984;32.490;2023-08-17T00:17:57;3.37;;;2.03;;
35074;SDS011;21260;34.984;32.490;2023-08-17T00:20:23;2.78;;;1.70;;
35074;SDS011;21260;34.984;32.490;2023-08-17T00:22:50;3.47;;;1.80;;
35074;SDS011;21260;34.984;32.490;2023-08-17T00:25:16;4.32;;;1.70;;
35074;SDS011;21260;34.984;32.490;2023-08-17T00:27:42;4.38;;;1.50;;
35074;SDS011;21260;34.984;32.490;2023-08-17T00:30:08;2.30;;;1.15;;
35074;SDS011;21260;34.984;32.490;2023-08-17T00:32:35;2.30;;;1.00;;
35074;SDS011;21260;34.984;32.490;2023-08-17T00:35:02;1.92;;;1.00;;
35074;SDS011;21260;34.984;32.490;2023-08-17T00:37:28;2.72;;;1.05;;
35074;SDS011;21260;34.984;32.490;2023-08-17T00:39:54;2.47;;;1.23;;
35074;SDS011;21260;34.984;32.490;2023-08-17T00:42:21;1.40;;;0.95;;
35074;SDS011;21260;34.984;32.490;2023-08-17T00:44:47;2.08;;;0.90;;
35074;SDS011;21260;34.984;32.490;2023-08-17T00:47:13;1.88;;;0.82;;
35074;SDS011;21260;34.984;32.490;2023-08-17T00:49:40;4.78;;;1.23;;
35074;SDS011;21260;34.984;32.490;2023-08-17T00:52:06;3.47;;;1.02;;
35074;SDS011;21260;34.984;32.490;2023-08-17T00:54:33;3.58;;;1.13;;
35074;SDS011;21260;34.984;32.490;2023-08-17T00:56:59;2.25;;;1.10;;
35074;SDS011;21260;34.984;32.490;2023-08-17T00:59:26;2.70;;;1.08;;
35074;SDS011;21260;34.984;32.490;2023-08-17T01:01:53;2.70;;;0.90;;
35074;SDS011;21260;34.984;32.490;2023-08-17T01:04:20;2.83;;;1.10;;
35074;SDS011;21260;34.984;32.490;2023-08-17T01:06:46;1.65;;;0.80;;
35074;SDS011;21260;34.984;32.490;2023-08-17T01:09:13;2.03;;;0.95;;
35074;SDS011;21260;34.984;32.490;2023-08-17T01:17:26;1.65;;;0.90;;
35074;SDS011;21260;34.984;32.490;2023-08-17T01:20:17;5.53;;;1.00;;
35074;SDS011;21260;34.984;32.490;2023-08-17T01:22:48;2.53;;;0.93;;
35074;SDS011;21260;34.984;32.490;2023-08-17T01:25:22;1.87;;;0.97;;
35074;SDS011;21260;34.984;32.490;2023-08-17T01:27:49;2.47;;;0.93;;
35074;SDS011;21260;34.984;32.490;2023-08-17T01:30:15;2.47;;;0.73;;
35074;SDS011;21260;34.984;32.490;2023-08-17T01:36:19;1.80;;;0.80;;
35074;SDS011;21260;34.984;32.490;2023-08-17T01:38:52;3.20;;;1.00;;
35074;SDS011;21260;34.984;32.490;2023-08-17T01:41:21;4.30;;;1.02;;
35074;SDS011;21260;34.984;32.490;2023-08-17T01:43:50;5.25;;;1.20;;
35074;SDS011;21260;34.984;32.490;2023-08-17T01:46:17;3.23;;;1.10;;
35074;SDS011;21260;34.984;32.490;2023-08-17T01:48:44;4.57;;;1.25;;
35074;SDS011;21260;34.984;32.490;2023-08-17T01:51:15;2.35;;;1.30;;
35074;SDS011;21260;34.984;32.490;2023-08-17T01:53:47;2.87;;;1.47;;
35074;SDS011;21260;34.984;32.490;2023-08-17T01:56:13;3.88;;;1.35;;
35074;SDS011;21260;34.984;32.490;2023-08-17T01:58:40;3.97;;;1.40;;
35074;SDS011;21260;34.984;32.490;2023-08-17T02:01:06;4.43;;;1.30;;
35074;SDS011;21260;34.984;32.490;2023-08-17T02:03:33;2.60;;;1.20;;
35074;SDS011;21260;34.984;32.490;2023-08-17T02:06:00;3.60;;;1.60;;
35074;SDS011;21260;34.984;32.490;2023-08-17T02:08:26;3.35;;;1.30;;
35074;SDS011;21260;34.984;32.490;2023-08-17T02:10:53;3.60;;;1.13;;
35074;SDS011;21260;34.984;32.490;2023-08-17T02:13:20;3.17;;;1.30;;
35074;SDS011;21260;34.984;32.490;2023-08-17T02:15:46;3.15;;;1.42;;
35074;SDS011;21260;34.984;32.490;2023-08-17T02:18:14;3.30;;;1.50;;
35074;SDS011;21260;34.984;32.490;2023-08-17T02:20:40;3.28;;;1.42;;
35074;SDS011;21260;34.984;32.490;2023-08-17T02:23:09;2.95;;;1.60;;
35074;SDS011;21260;34.984;32.490;2023-08-17T02:25:37;4.10;;;1.70;;
35074;SDS011;21260;34.984;32.490;2023-08-17T02:28:04;4.65;;;2.00;;
35074;SDS011;21260;34.984;32.490;2023-08-17T02:30:31;6.20;;;2.30;;
35074;SDS011;21260;34.984;32.490;2023-08-17T02:32:58;3.30;;;1.73;;
35074;SDS011;21260;34.984;32.490;2023-08-17T02:35:24;5.28;;;2.47;;
35074;SDS011;21260;34.984;32.490;2023-08-17T02:38:01;5.93;;;2.40;;
35074;SDS011;21260;34.984;32.490;2023-08-17T02:40:27;5.40;;;2.40;;
35074;SDS011;21260;34.984;32.490;2023-08-17T02:42:53;5.90;;;2.50;;
35074;SDS011;21260;34.984;32.490;2023-08-17T02:45:22;5.65;;;2.78;;
35074;SDS011;21260;34.984;32.490;2023-08-17T02:47:49;6.43;;;2.42;;
35074;SDS011;21260;34.984;32.490;2023-08-17T02:50:16;7.53;;;2.80;;
35074;SDS011;21260;34.984;32.490;2023-08-17T02:52:47;9.75;;;2.80;;
35074;SDS011;21260;34.984;32.490;2023-08-17T02:55:13;8.25;;;2.63;;
35074;SDS011;21260;34.984;32.490;2023-08-17T02:57:42;6.15;;;2.60;;
35074;SDS011;21260;34.984;32.490;2023-08-17T03:00:09;6.53;;;2.80;;
35074;SDS011;21260;34.984;32.490;2023-08-17T03:02:36;8.27;;;3.47;;
35074;SDS011;21260;34.984;32.490;2023-08-17T03:05:02;9.57;;;3.13;;
35074;SDS011;21260;34.984;32.490;2023-08-17T03:07:29;5.80;;;2.70;;
35074;SDS011;21260;34.984;32.490;2023-08-17T03:09:55;11.10;;;2.97;;
35074;SDS011;21260;34.984;32.490;2023-08-17T03:12:25;13.05;;;3.25;;
35074;SDS011;21260;34.984;32.490;2023-08-17T03:14:52;7.50;;;2.85;;
35074;SDS011;21260;34.984;32.490;2023-08-17T03:17:19;8.95;;;3.40;;
35074;SDS011;21260;34.984;32.490;2023-08-17T03:19:48;11.32;;;3.47;;
35074;SDS011;21260;34.984;32.490;2023-08-17T03:22:14;7.07;;;2.80;;
35074;SDS011;21260;34.984;32.490;2023-08-17T03:24:40;7.25;;;2.97;;
35074;SDS011;21260;34.984;32.490;2023-08-17T03:27:06;8.32;;;3.10;;
35074;SDS011;21260;34.984;32.490;2023-08-17T03:29:33;9.02;;;3.28;;
35074;SDS011;21260;34.984;32.490;2023-08-17T03:31:59;6.80;;;2.87;;
35074;SDS011;21260;34.984;32.490;2023-08-17T03:34:26;8.27;;;2.93;;
35074;SDS011;21260;34.984;32.490;2023-08-17T03:36:52;11.13;;;2.95;;
35074;SDS011;21260;34.984;32.490;2023-08-17T03:39:24;12.75;;;3.05;;
35074;SDS011;21260;34.984;32.490;2023-08-17T03:41:50;10.25;;;3.10;;
35074;SDS011;21260;34.984;32.490;2023-08-17T03:44:17;8.52;;;3.20;;
35074;SDS011;21260;34.984;32.490;2023-08-17T03:46:43;7.23;;;2.90;;
35074;SDS011;21260;34.984;32.490;2023-08-17T03:49:09;12.60;;;3.17;;
35074;SDS011;21260;34.984;32.490;2023-08-17T03:51:43;9.27;;;2.83;;
35074;SDS011;21260;34.984;32.490;2023-08-17T03:54:12;9.35;;;3.33;;
35074;SDS011;21260;34.984;32.490;2023-08-17T03:56:41;12.70;;;3.22;;
35074;SDS011;21260;34.984;32.490;2023-08-17T03:59:08;10.23;;;3.03;;
35074;SDS011;21260;34.984;32.490;2023-08-17T04:01:34;7.20;;;3.33;;
35074;SDS011;21260;34.984;32.490;2023-08-17T04:04:00;9.52;;;3.95;;
35074;SDS011;21260;34.984;32.490;2023-08-17T04:06:27;8.30;;;3.57;;
35074;SDS011;21260;34.984;32.490;2023-08-17T04:08:54;8.45;;;3.33;;
35074;SDS011;21260;34.984;32.490;2023-08-17T04:11:20;9.07;;;3.53;;
35074;SDS011;21260;34.984;32.490;2023-08-17T04:13:47;8.27;;;3.40;;
35074;SDS011;21260;34.984;32.490;2023-08-17T04:16:16;11.35;;;3.83;;
35074;SDS011;21260;34.984;32.490;2023-08-17T04:18:42;12.48;;;3.90;;
35074;SDS011;21260;34.984;32.490;2023-08-17T04:21:08;11.40;;;3.90;;
35074;SDS011;21260;34.984;32.490;2023-08-17T04:23:34;9.65;;;3.70;;
35074;SDS011;21260;34.984;32.490;2023-08-17T04:26:01;8.40;;;3.72;;
35074;SDS011;21260;34.984;32.490;2023-08-17T04:28:27;9.43;;;3.67;;
35074;SDS011;21260;34.984;32.490;2023-08-17T04:30:53;8.25;;;3.63;;
35074;SDS011;21260;34.984;32.490;2023-08-17T04:33:19;7.72;;;3.72;;
35074;SDS011;21260;34.984;32.490;2023-08-17T04:35:49;10.35;;;3.85;;
35074;SDS011;21260;34.984;32.490;2023-08-17T04:38:15;6.93;;;3.50;;
35074;SDS011;21260;34.984;32.490;2023-08-17T04:40:44;7.13;;;3.70;;
35074;SDS011;21260;34.984;32.490;2023-08-17T04:43:10;7.30;;;3.90;;
35074;SDS011;21260;34.984;32.490;2023-08-17T04:45:37;9.18;;;3.83;;
35074;SDS011;21260;34.984;32.490;2023-08-17T04:48:04;6.57;;;3.50;;
35074;SDS011;21260;34.984;32.490;2023-08-17T04:50:31;6.47;;;3.78;;
35074;SDS011;21260;34.984;32.490;2023-08-17T04:52:57;6.72;;;4.13;;
35074;SDS011;21260;34.984;32.490;2023-08-17T04:55:24;9.52;;;4.40;;
35074;SDS011;21260;34.984;32.490;2023-08-17T04:57:50;7.67;;;4.70;;
35074;SDS011;21260;34.984;32.490;2023-08-17T05:00:16;9.17;;;5.20;;
35074;SDS011;21260;34.984;32.490;2023-08-17T05:02:45;8.57;;;4.97;;
35074;SDS011;21260;34.984;32.490;2023-08-17T05:05:12;8.52;;;4.90;;
35074;SDS011;21260;34.984;32.490;2023-08-17T05:07:38;9.85;;;5.38;;
35074;SDS011;21260;34.984;32.490;2023-08-17T05:10:05;9.77;;;5.32;;
35074;SDS011;21260;34.984;32.490;2023-08-17T05:12:31;8.52;;;5.53;;
35074;SDS011;21260;34.984;32.490;2023-08-17T05:14:58;11.38;;;5.72;;
35074;SDS011;21260;34.984;32.490;2023-08-17T05:17:24;10.55;;;6.28;;
35074;SDS011;21260;34.984;32.490;2023-08-17T05:19:50;10.13;;;6.30;;
35074;SDS011;21260;34.984;32.490;2023-08-17T05:22:17;12.18;;;6.75;;
35074;SDS011;21260;34.984;32.490;2023-08-17T05:24:43;11.55;;;6.65;;
35074;SDS011;21260;34.984;32.490;2023-08-17T05:27:09;9.38;;;6.50;;
35074;SDS011;21260;34.984;32.490;2023-08-17T05:29:36;13.10;;;6.18;;
35074;SDS011;21260;34.984;32.490;2023-08-17T05:32:02;10.73;;;6.40;;
35074;SDS011;21260;34.984;32.490;2023-08-17T05:34:28;10.80;;;6.70;;
35074;SDS011;21260;34.984;32.490;2023-08-17T05:36:55;13.18;;;7.05;;
35074;SDS011;21260;34.984;32.490;2023-08-17T05:39:21;12.30;;;7.80;;
35074;SDS011;21260;34.984;32.490;2023-08-17T05:41:48;13.15;;;7.97;;
35074;SDS011;21260;34.984;32.490;2023-08-17T05:44:14;16.65;;;7.90;;
35074;SDS011;21260;34.984;32.490;2023-08-17T05:46:42;11.75;;;7.55;;
35074;SDS011;21260;34.984;32.490;2023-08-17T05:49:15;12.57;;;8.53;;
35074;SDS011;21260;34.984;32.490;2023-08-17T05:51:41;16.25;;;9.10;;
35074;SDS011;21260;34.984;32.490;2023-08-17T05:54:07;16.92;;;10.07;;
35074;SDS011;21260;34.984;32.490;2023-08-17T05:56:34;16.67;;;11.80;;
35074;SDS011;21260;34.984;32.490;2023-08-17T05:59:03;20.85;;;12.60;;
35074;SDS011;21260;34.984;32.490;2023-08-17T06:01:29;21.58;;;12.73;;
35074;SDS011;21260;34.984;32.490;2023-08-17T06:03:56;19.73;;;12.77;;
35074;SDS011;21260;34.984;32.490;2023-08-17T06:06:22;17.90;;;12.33;;
35074;SDS011;21260;34.984;32.490;2023-08-17T06:08:53;19.85;;;13.02;;
35074;SDS011;21260;34.984;32.490;2023-08-17T06:11:24;21.27;;;13.02;;
35074;SDS011;21260;34.984;32.490;2023-08-17T06:13:58;18.10;;;12.93;;
35074;SDS011;21260;34.984;32.490;2023-08-17T06:16:24;22.58;;;13.30;;
35074;SDS011;21260;34.984;32.490;2023-08-17T06:18:50;17.97;;;12.10;;
35074;SDS011;21260;34.984;32.490;2023-08-17T06:21:16;19.92;;;12.50;;
35074;SDS011;21260;34.984;32.490;2023-08-17T06:23:43;19.00;;;12.30;;
35074;SDS011;21260;34.984;32.490;2023-08-17T06:26:10;18.00;;;12.10;;
35074;SDS011;21260;34.984;32.490;2023-08-17T06:28:42;21.00;;;12.60;;
35074;SDS011;21260;34.984;32.490;2023-08-17T06:31:08;18.50;;;12.27;;
35074;SDS011;21260;34.984;32.490;2023-08-17T06:33:35;22.30;;;12.32;;
35074;SDS011;21260;34.984;32.490;2023-08-17T06:36:07;16.17;;;11.15;;
35074;SDS011;21260;34.984;32.490;2023-08-17T06:38:34;17.77;;;12.13;;
35074;SDS011;21260;34.984;32.490;2023-08-17T06:41:07;19.77;;;12.57;;
35074;SDS011;21260;34.984;32.490;2023-08-17T06:43:33;18.67;;;12.73;;
35074;SDS011;21260;34.984;32.490;2023-08-17T06:46:00;21.00;;;12.00;;
35074;SDS011;21260;34.984;32.490;2023-08-17T06:48:27;20.10;;;12.52;;
35074;SDS011;21260;34.984;32.490;2023-08-17T06:50:53;19.92;;;12.95;;
35074;SDS011;21260;34.984;32.490;2023-08-17T06:53:20;20.07;;;11.53;;
35074;SDS011;21260;34.984;32.490;2023-08-17T06:55:46;21.17;;;12.48;;
35074;SDS011;21260;34.984;32.490;2023-08-17T06:58:13;19.67;;;12.20;;
35074;SDS011;21260;34.984;32.490;2023-08-17T07:00:39;17.48;;;11.50;;
35074;SDS011;21260;34.984;32.490;2023-08-17T07:03:06;18.80;;;11.88;;
35074;SDS011;21260;34.984;32.490;2023-08-17T07:05:33;19.65;;;11.65;;
35074;SDS011;21260;34.984;32.490;2023-08-17T07:08:00;16.70;;;12.25;;
35074;SDS011;21260;34.984;32.490;2023-08-17T07:10:27;20.85;;;11.88;;
35074;SDS011;21260;34.984;32.490;2023-08-17T07:12:54;21.88;;;11.98;;
35074;SDS011;21260;34.984;32.490;2023-08-17T07:15:20;17.95;;;11.52;;
35074;SDS011;21260;34.984;32.490;2023-08-17T07:17:46;16.50;;;11.52;;
35074;SDS011;21260;34.984;32.490;2023-08-17T07:20:12;19.08;;;12.15;;
35074;SDS011;21260;34.984;32.490;2023-08-17T07:22:39;17.77;;;11.80;;
35074;SDS011;21260;34.984;32.490;2023-08-17T07:25:09;18.70;;;12.05;;
35074;SDS011;21260;34.984;32.490;2023-08-17T07:27:35;17.33;;;11.65;;
35074;SDS011;21260;34.984;32.490;2023-08-17T07:30:02;18.90;;;11.50;;
35074;SDS011;21260;34.984;32.490;2023-08-17T07:32:29;17.95;;;10.95;;
35074;SDS011;21260;34.984;32.490;2023-08-17T07:34:55;17.67;;;11.85;;
35074;SDS011;21260;34.984;32.490;2023-08-17T07:37:22;15.27;;;11.23;;
35074;SDS011;21260;34.984;32.490;2023-08-17T07:39:48;16.10;;;11.20;;
35074;SDS011;21260;34.984;32.490;2023-08-17T07:42:14;20.75;;;11.38;;
35074;SDS011;21260;34.984;32.490;2023-08-17T07:44:41;18.23;;;10.80;;
35074;SDS011;21260;34.984;32.490;2023-08-17T07:47:07;16.27;;;11.00;;
35074;SDS011;21260;34.984;32.490;2023-08-17T07:49:34;16.73;;;10.30;;
35074;SDS011;21260;34.984;32.490;2023-08-17T07:52:00;20.05;;;11.02;;
35074;SDS011;21260;34.984;32.490;2023-08-17T07:54:26;18.33;;;10.68;;
35074;SDS011;21260;34.984;32.490;2023-08-17T07:56:54;16.48;;;10.73;;
35074;SDS011;21260;34.984;32.490;2023-08-17T07:59:20;16.95;;;10.15;;
35074;SDS011;21260;34.984;32.490;2023-08-17T08:01:46;13.90;;;10.00;;
35074;SDS011;21260;34.984;32.490;2023-08-17T08:04:12;13.90;;;9.60;;
35074;SDS011;21260;34.984;32.490;2023-08-17T08:06:39;17.02;;;10.20;;
35074;SDS011;21260;34.984;32.490;2023-08-17T08:09:05;15.13;;;9.60;;
35074;SDS011;21260;34.984;32.490;2023-08-17T08:11:32;18.17;;;10.18;;
35074;SDS011;21260;34.984;32.490;2023-08-17T08:14:01;18.55;;;10.50;;
35074;SDS011;21260;34.984;32.490;2023-08-17T08:16:28;18.23;;;10.80;;
35074;SDS011;21260;34.984;32.490;2023-08-17T08:19:04;14.30;;;10.20;;
35074;SDS011;21260;34.984;32.490;2023-08-17T08:21:31;16.27;;;9.70;;
35074;SDS011;21260;34.984;32.490;2023-08-17T08:23:57;16.95;;;10.07;;
35074;SDS011;21260;34.984;32.490;2023-08-17T08:26:24;17.83;;;10.20;;
35074;SDS011;21260;34.984;32.490;2023-08-17T08:28:50;12.93;;;9.65;;
35074;SDS011;21260;34.984;32.490;2023-08-17T08:31:17;15.15;;;9.93;;
35074;SDS011;21260;34.984;32.490;2023-08-17T08:33:44;14.88;;;10.15;;
35074;SDS011;21260;34.984;32.490;2023-08-17T08:36:13;16.40;;;10.15;;
35074;SDS011;21260;34.984;32.490;2023-08-17T08:38:52;15.70;;;10.40;;
35074;SDS011;21260;34.984;32.490;2023-08-17T08:41:18;15.93;;;10.27;;
35074;SDS011;21260;34.984;32.490;2023-08-17T08:43:46;17.95;;;10.10;;
35074;SDS011;21260;34.984;32.490;2023-08-17T08:46:16;15.48;;;10.18;;
35074;SDS011;21260;34.984;32.490;2023-08-17T08:48:46;15.55;;;10.23;;
35074;SDS011;21260;34.984;32.490;2023-08-17T08:51:19;20.50;;;10.73;;
35074;SDS011;21260;34.984;32.490;2023-08-17T08:53:57;15.68;;;10.27;;
35074;SDS011;21260;34.984;32.490;2023-08-17T08:56:29;18.80;;;10.75;;
35074;SDS011;21260;34.984;32.490;2023-08-17T08:59:01;17.80;;;10.38;;
35074;SDS011;21260;34.984;32.490;2023-08-17T09:01:28;16.33;;;10.30;;
35074;SDS011;21260;34.984;32.490;2023-08-17T09:04:00;18.00;;;10.13;;
35074;SDS011;21260;34.984;32.490;2023-08-17T09:06:29;14.27;;;10.23;;
35074;SDS011;21260;34.984;32.490;2023-08-17T09:08:59;16.52;;;10.43;;
35074;SDS011;21260;34.984;32.490;2023-08-17T09:11:28;19.35;;;10.75;;
35074;SDS011;21260;34.984;32.490;2023-08-17T09:13:55;16.15;;;9.95;;
35074;SDS011;21260;34.984;32.490;2023-08-17T09:16:21;18.30;;;10.48;;
35074;SDS011;21260;34.984;32.490;2023-08-17T09:18:47;15.73;;;10.23;;
35074;SDS011;21260;34.984;32.490;2023-08-17T09:21:23;18.13;;;10.23;;
35074;SDS011;21260;34.984;32.490;2023-08-17T09:23:53;17.58;;;10.18;;
35074;SDS011;21260;34.984;32.490;2023-08-17T09:26:21;18.45;;;10.82;;
35074;SDS011;21260;34.984;32.490;2023-08-17T09:28:52;15.25;;;10.40;;
35074;SDS011;21260;34.984;32.490;2023-08-17T09:31:23;16.77;;;10.52;;
35074;SDS011;21260;34.984;32.490;2023-08-17T09:33:51;17.83;;;10.63;;
35074;SDS011;21260;34.984;32.490;2023-08-17T09:36:21;17.50;;;10.20;;
35074;SDS011;21260;34.984;32.490;2023-08-17T09:38:49;17.55;;;10.20;;
35074;SDS011;21260;34.984;32.490;2023-08-17T09:41:18;15.52;;;9.43;;
35074;SDS011;21260;34.984;32.490;2023-08-17T09:43:45;19.30;;;10.35;;
35074;SDS011;21260;34.984;32.490;2023-08-17T09:46:12;18.92;;;10.35;;
35074;SDS011;21260;34.984;32.490;2023-08-17T09:48:40;17.35;;;9.98;;
35074;SDS011;21260;34.984;32.490;2023-08-17T09:51:14;20.38;;;10.20;;
35074;SDS011;21260;34.984;32.490;2023-08-17T09:53:42;14.48;;;9.73;;
35074;SDS011;21260;34.984;32.490;2023-08-17T09:56:09;17.58;;;9.93;;
35074;SDS011;21260;34.984;32.490;2023-08-17T09:58:38;19.13;;;10.48;;
35074;SDS011;21260;34.984;32.490;2023-08-17T10:01:04;17.58;;;9.82;;
35074;SDS011;21260;34.984;32.490;2023-08-17T10:03:34;16.87;;;9.60;;
35074;SDS011;21260;34.984;32.490;2023-08-17T10:06:09;14.35;;;9.45;;
35074;SDS011;21260;34.984;32.490;2023-08-17T10:08:42;16.35;;;10.38;;
35074;SDS011;21260;34.984;32.490;2023-08-17T10:11:12;16.45;;;9.95;;
35074;SDS011;21260;34.984;32.490;2023-08-17T10:19:05;17.08;;;9.77;;
35074;SDS011;21260;34.984;32.490;2023-08-17T10:21:39;17.10;;;10.00;;
35074;SDS011;21260;34.984;32.490;2023-08-17T10:24:18;17.97;;;9.63;;
35074;SDS011;21260;34.984;32.490;2023-08-17T10:26:45;17.45;;;10.07;;
35074;SDS011;21260;34.984;32.490;2023-08-17T10:29:12;18.67;;;10.00;;
35074;SDS011;21260;34.984;32.490;2023-08-17T10:31:40;18.52;;;10.50;;
35074;SDS011;21260;34.984;32.490;2023-08-17T10:34:13;16.23;;;9.87;;
35074;SDS011;21260;34.984;32.490;2023-08-17T10:36:41;14.68;;;9.50;;
35074;SDS011;21260;34.984;32.490;2023-08-17T10:39:22;17.73;;;10.00;;
35074;SDS011;21260;34.984;32.490;2023-08-17T10:41:53;18.73;;;10.20;;
35074;SDS011;21260;34.984;32.490;2023-08-17T10:44:37;15.07;;;10.05;;
35074;SDS011;21260;34.984;32.490;2023-08-17T10:47:21;16.85;;;10.38;;
35074;SDS011;21260;34.984;32.490;2023-08-17T10:52:27;18.20;;;10.20;;
35074;SDS011;21260;34.984;32.490;2023-08-17T10:55:05;19.63;;;10.35;;
35074;SDS011;21260;34.984;32.490;2023-08-17T10:57:37;17.70;;;10.63;;
35074;SDS011;21260;34.984;32.490;2023-08-17T11:11:21;17.25;;;10.63;;
35074;SDS011;21260;34.984;32.490;2023-08-17T11:13:48;19.77;;;11.30;;
35074;SDS011;21260;34.984;32.490;2023-08-17T11:16:16;18.08;;;11.15;;
35074;SDS011;21260;34.984;32.490;2023-08-17T11:18:46;18.15;;;10.80;;
35074;SDS011;21260;34.984;32.490;2023-08-17T11:21:14;22.65;;;11.45;;
35074;SDS011;21260;34.984;32.490;2023-08-17T11:23:41;18.70;;;10.77;;
35074;SDS011;21260;34.984;32.490;2023-08-17T11:26:08;15.95;;;10.93;;
35074;SDS011;21260;34.984;32.490;2023-08-17T11:28:35;17.20;;;11.10;;
35074;SDS011;21260;34.984;32.490;2023-08-17T11:31:05;15.63;;;9.77;;
35074;SDS011;21260;34.984;32.490;2023-08-17T11:33:37;19.83;;;10.97;;
35074;SDS011;21260;34.984;32.490;2023-08-17T11:36:05;17.10;;;10.83;;
35074;SDS011;21260;34.984;32.490;2023-08-17T11:38:34;18.48;;;11.05;;
35074;SDS011;21260;34.984;32.490;2023-08-17T11:41:03;17.27;;;10.07;;
35074;SDS011;21260;34.984;32.490;2023-08-17T11:43:31;17.38;;;10.57;;
35074;SDS011;21260;34.984;32.490;2023-08-17T11:45:59;19.40;;;10.85;;
35074;SDS011;21260;34.984;32.490;2023-08-17T11:48:28;17.42;;;10.85;;
35074;SDS011;21260;34.984;32.490;2023-08-17T11:50:55;20.23;;;11.17;;
35074;SDS011;21260;34.984;32.490;2023-08-17T11:53:23;17.77;;;10.88;;
35074;SDS011;21260;34.984;32.490;2023-08-17T11:55:49;18.75;;;11.23;;
35074;SDS011;21260;34.984;32.490;2023-08-17T11:58:17;20.83;;;11.68;;
35074;SDS011;21260;34.984;32.490;2023-08-17T12:00:43;18.20;;;11.30;;
35074;SDS011;21260;34.984;32.490;2023-08-17T12:03:14;21.00;;;11.63;;
35074;SDS011;21260;34.984;32.490;2023-08-17T12:05:41;18.95;;;11.18;;
35074;SDS011;21260;34.984;32.490;2023-08-17T12:08:13;18.15;;;10.85;;
35074;SDS011;21260;34.984;32.490;2023-08-17T12:10:42;20.35;;;11.23;;
35074;SDS011;21260;34.984;32.490;2023-08-17T12:13:11;20.08;;;11.07;;
35074;SDS011;21260;34.984;32.490;2023-08-17T12:15:38;21.15;;;12.00;;
35074;SDS011;21260;34.984;32.490;2023-08-17T12:18:05;17.00;;;11.40;;
35074;SDS011;21260;34.984;32.490;2023-08-17T12:20:34;21.30;;;11.38;;
35074;SDS011;21260;34.984;32.490;2023-08-17T12:23:01;21.42;;;11.00;;
35074;SDS011;21260;34.984;32.490;2023-08-17T12:25:28;19.27;;;10.60;;
35074;SDS011;21260;34.984;32.490;2023-08-17T12:27:57;17.85;;;11.32;;
35074;SDS011;21260;34.984;32.490;2023-08-17T12:30:27;17.85;;;11.30;;
35074;SDS011;21260;34.984;32.490;2023-08-17T12:33:01;17.95;;;11.60;;
35074;SDS011;21260;34.984;32.490;2023-08-17T12:35:29;18.83;;;11.18;;
35074;SDS011;21260;34.984;32.490;2023-08-17T12:37:57;18.42;;;10.90;;
35074;SDS011;21260;34.984;32.490;2023-08-17T12:40:24;18.37;;;11.30;;
35074;SDS011;21260;34.984;32.490;2023-08-17T12:42:50;19.63;;;11.30;;
35074;SDS011;21260;34.984;32.490;2023-08-17T12:45:16;19.07;;;11.27;;
35074;SDS011;21260;34.984;32.490;2023-08-17T12:47:43;17.57;;;11.10;;
35074;SDS011;21260;34.984;32.490;2023-08-17T12:50:09;18.10;;;11.40;;
35074;SDS011;21260;34.984;32.490;2023-08-17T12:52:35;18.40;;;11.38;;
35074;SDS011;21260;34.984;32.490;2023-08-17T12:55:01;16.80;;;11.10;;
35074;SDS011;21260;34.984;32.490;2023-08-17T12:57:28;18.42;;;10.95;;
35074;SDS011;21260;34.984;32.490;2023-08-17T12:59:55;18.45;;;11.38;;
35074;SDS011;21260;34.984;32.490;2023-08-17T13:02:21;18.48;;;10.60;;
35074;SDS011;21260;34.984;32.490;2023-08-17T13:04:48;19.48;;;11.35;;
35074;SDS011;21260;34.984;32.490;2023-08-17T13:07:15;15.40;;;11.18;;
35074;SDS011;21260;34.984;32.490;2023-08-17T13:09:41;16.48;;;11.13;;
35074;SDS011;21260;34.984;32.490;2023-08-17T13:12:08;17.35;;;11.68;;
35074;SDS011;21260;34.984;32.490;2023-08-17T13:14:34;15.80;;;10.25;;
35074;SDS011;21260;34.984;32.490;2023-08-17T13:17:01;16.92;;;10.93;;
35074;SDS011;21260;34.984;32.490;2023-08-17T13:19:28;16.45;;;10.65;;
35074;SDS011;21260;34.984;32.490;2023-08-17T13:21:54;16.02;;;10.75;;
35074;SDS011;21260;34.984;32.490;2023-08-17T13:24:20;19.45;;;10.98;;
35074;SDS011;21260;34.984;32.490;2023-08-17T13:26:46;16.53;;;11.13;;
35074;SDS011;21260;34.984;32.490;2023-08-17T13:29:18;15.15;;;10.73;;
35074;SDS011;21260;34.984;32.490;2023-08-17T13:31:46;17.45;;;11.30;;
35074;SDS011;21260;34.984;32.490;2023-08-17T13:34:15;17.90;;;10.80;;
35074;SDS011;21260;34.984;32.490;2023-08-17T13:36:42;15.10;;;10.55;;
35074;SDS011;21260;34.984;32.490;2023-08-17T13:39:08;15.88;;;10.55;;
35074;SDS011;21260;34.984;32.490;2023-08-17T13:41:35;16.98;;;10.82;;
35074;SDS011;21260;34.984;32.490;2023-08-17T13:44:01;15.88;;;10.27;;
35074;SDS011;21260;34.984;32.490;2023-08-17T13:46:28;16.50;;;11.07;;
35074;SDS011;21260;34.984;32.490;2023-08-17T13:48:55;18.60;;;10.98;;
35074;SDS011;21260;34.984;32.490;2023-08-17T13:51:21;17.83;;;10.68;;
35074;SDS011;21260;34.984;32.490;2023-08-17T13:53:48;18.08;;;10.65;;
35074;SDS011;21260;34.984;32.490;2023-08-17T13:56:14;17.92;;;11.20;;
35074;SDS011;21260;34.984;32.490;2023-08-17T13:58:42;15.52;;;10.48;;
35074;SDS011;21260;34.984;32.490;2023-08-17T14:01:08;16.52;;;10.77;;
35074;SDS011;21260;34.984;32.490;2023-08-17T14:03:36;15.93;;;10.80;;
35074;SDS011;21260;34.984;32.490;2023-08-17T14:06:03;14.70;;;10.30;;
35074;SDS011;21260;34.984;32.490;2023-08-17T14:08:29;14.68;;;10.75;;
35074;SDS011;21260;34.984;32.490;2023-08-17T14:10:56;16.55;;;10.57;;
35074;SDS011;21260;34.984;32.490;2023-08-17T14:13:22;17.33;;;10.07;;
35074;SDS011;21260;34.984;32.490;2023-08-17T14:15:49;18.83;;;10.35;;
35074;SDS011;21260;34.984;32.490;2023-08-17T14:18:15;17.67;;;10.10;;
35074;SDS011;21260;34.984;32.490;2023-08-17T14:20:41;15.97;;;10.70;;
35074;SDS011;21260;34.984;32.490;2023-08-17T14:23:07;15.83;;;10.43;;
35074;SDS011;21260;34.984;32.490;2023-08-17T14:25:34;14.70;;;9.90;;
35074;SDS011;21260;34.984;32.490;2023-08-17T14:28:03;15.18;;;9.90;;
35074;SDS011;21260;34.984;32.490;2023-08-17T14:30:32;17.73;;;10.60;;
35074;SDS011;21260;34.984;32.490;2023-08-17T14:32:59;16.00;;;9.70;;
35074;SDS011;21260;34.984;32.490;2023-08-17T14:35:26;19.13;;;10.55;;
35074;SDS011;21260;34.984;32.490;2023-08-17T14:37:53;18.90;;;10.10;;
35074;SDS011;21260;34.984;32.490;2023-08-17T14:40:23;18.37;;;10.20;;
35074;SDS011;21260;34.984;32.490;2023-08-17T14:42:49;23.55;;;10.80;;
35074;SDS011;21260;34.984;32.490;2023-08-17T14:45:15;16.77;;;10.23;;
35074;SDS011;21260;34.984;32.490;2023-08-17T14:47:41;15.70;;;10.20;;
35074;SDS011;21260;34.984;32.490;2023-08-17T14:50:08;17.60;;;10.07;;